sensor_id;sensor_type;location;lat;lon;timestamp;pressure;altitude;pressure_sealevel;temperature;humidity
69171;BME280;56279;47.902;12.308;2023-05-11T00:00:38;95199.31;;;9.59;93.67
69171;BME280;56279;47.902;12.308;2023-05-11T00:02:39;95198.25;;;9.60;93.78
69171;BME280;56279;47.902;12.308;2023-05-11T00:04:41;95203.53;;;9.60;93.50
69171;BME280;56279;47.902;12.308;2023-05-11T00:06:43;95201.19;;;9.59;93.68
69171;BME280;56279;47.902;12.308;2023-05-11T00:08:44;95191.41;;;9.59;93.60
69171;BME280;56279;47.902;12.308;2023-05-11T00:10:48;95197.47;;;9.60;93.44
69171;BME280;56279;47.902;12.308;2023-05-11T00:12:49;95190.06;;;9.62;93.73
69171;BME280;56279;47.902;12.308;2023-05-11T00:14:51;95194.53;;;9.61;93.65
69171;BME280;56279;47.902;12.308;2023-05-11T00:16:52;95193.78;;;9.61;93.52
69171;BME280;56279;47.902;12.308;2023-05-11T00:18:53;95191.41;;;9.59;93.41
69171;BME280;56279;47.902;12.308;2023-05-11T00:20:55;95193.00;;;9.60;93.33
69171;BME280;56279;47.902;12.308;2023-05-11T00:22:56;95191.41;;;9.59;93.20
69171;BME280;56279;47.902;12.308;2023-05-11T00:24:57;95190.63;;;9.59;93.72
69171;BME280;56279;47.902;12.308;2023-05-11T00:26:59;95190.91;;;9.57;93.44
69171;BME280;56279;47.902;12.308;2023-05-11T00:29:00;95187.47;;;9.57;93.64
69171;BME280;56279;47.902;12.308;2023-05-11T00:31:02;95186.97;;;9.55;93.71
69171;BME280;56279;47.902;12.308;2023-05-11T00:33:03;95187.75;;;9.55;93.66
69171;BME280;56279;47.902;12.308;2023-05-11T00:35:05;95185.91;;;9.56;93.81
69171;BME280;56279;47.902;12.308;2023-05-11T00:37:06;95178.81;;;9.56;93.64
69171;BME280;56279;47.902;12.308;2023-05-11T00:39:09;95185.91;;;9.56;93.68
69171;BME280;56279;47.902;12.308;2023-05-11T00:41:10;95181.69;;;9.55;93.73
69171;BME280;56279;47.902;12.308;2023-05-11T00:43:11;95182.47;;;9.55;93.76
69171;BME280;56279;47.902;12.308;2023-05-11T00:45:13;95185.13;;;9.55;93.84
69171;BME280;56279;47.902;12.308;2023-05-11T00:47:14;95185.41;;;9.54;93.76
69171;BME280;56279;47.902;12.308;2023-05-11T00:49:15;95178.81;;;9.51;93.50
69171;BME280;56279;47.902;12.308;2023-05-11T00:51:17;95182.25;;;9.52;93.66
69171;BME280;56279;47.902;12.308;2023-05-11T00:53:20;95174.59;;;9.50;93.44
69171;BME280;56279;47.902;12.308;2023-05-11T00:55:21;95176.19;;;9.51;93.57
69171;BME280;56279;47.902;12.308;2023-05-11T00:57:22;95168.28;;;9.51;93.52
69171;BME280;56279;47.902;12.308;2023-05-11T00:59:24;95172.47;;;9.52;93.40
69171;BME280;56279;47.902;12.308;2023-05-11T01:01:25;95173.56;;;9.51;93.56
69171;BME280;56279;47.902;12.308;2023-05-11T01:03:27;95175.69;;;9.49;93.20
69171;BME280;56279;47.902;12.308;2023-05-11T01:08:26;95176.50;;;9.45;93.43
69171;BME280;56279;47.902;12.308;2023-05-11T01:10:40;95178.34;;;9.44;93.30
69171;BME280;56279;47.902;12.308;2023-05-11T01:17:23;95176.25;;;9.41;93.23
69171;BME280;56279;47.902;12.308;2023-05-11T01:19:43;95176.53;;;9.40;93.23
69171;BME280;56279;47.902;12.308;2023-05-11T01:21:49;95177.84;;;9.42;93.62
69171;BME280;56279;47.902;12.308;2023-05-11T01:27:13;95169.66;;;9.39;93.40
69171;BME280;56279;47.902;12.308;2023-05-11T01:31:11;95164.69;;;9.37;93.40
69171;BME280;56279;47.902;12.308;2023-05-11T01:33:13;95169.66;;;9.39;93.68
69171;BME280;56279;47.902;12.308;2023-05-11T01:35:17;95166.25;;;9.38;93.55
69171;BME280;56279;47.902;12.308;2023-05-11T01:37:23;95167.31;;;9.37;93.25
69171;BME280;56279;47.902;12.308;2023-05-11T01:39:39;95161.78;;;9.34;93.59
69171;BME280;56279;47.902;12.308;2023-05-11T01:41:43;95173.13;;;9.34;93.50
69171;BME280;56279;47.902;12.308;2023-05-11T01:43:53;95172.34;;;9.34;93.17
69171;BME280;56279;47.902;12.308;2023-05-11T01:45:59;95170.50;;;9.34;93.53
69171;BME280;56279;47.902;12.308;2023-05-11T01:48:04;95162.06;;;9.32;93.32
69171;BME280;56279;47.902;12.308;2023-05-11T01:50:07;95165.50;;;9.33;93.30
69171;BME280;56279;47.902;12.308;2023-05-11T01:52:10;95161.56;;;9.30;93.21
69171;BME280;56279;47.902;12.308;2023-05-11T01:54:19;95157.34;;;9.29;93.36
69171;BME280;56279;47.902;12.308;2023-05-11T01:56:21;95154.72;;;9.29;93.88
69171;BME280;56279;47.902;12.308;2023-05-11T01:58:26;95158.44;;;9.28;93.42
69171;BME280;56279;47.902;12.308;2023-05-11T02:00:29;95157.63;;;9.28;93.34
69171;BME280;56279;47.902;12.308;2023-05-11T02:02:32;95158.69;;;9.27;93.52
69171;BME280;56279;47.902;12.308;2023-05-11T02:04:36;95161.31;;;9.27;93.77
69171;BME280;56279;47.902;12.308;2023-05-11T02:06:40;95152.91;;;9.25;93.47
69171;BME280;56279;47.902;12.308;2023-05-11T02:08:43;95157.66;;;9.23;93.41
69171;BME280;56279;47.902;12.308;2023-05-11T02:10:47;95159.25;;;9.24;93.43
69171;BME280;56279;47.902;12.308;2023-05-11T02:12:50;95157.66;;;9.23;93.82
69171;BME280;56279;47.902;12.308;2023-05-11T02:14:54;95162.63;;;9.24;93.92
69171;BME280;56279;47.902;12.308;2023-05-11T02:16:57;95162.63;;;9.24;93.77
69171;BME280;56279;47.902;12.308;2023-05-11T02:18:59;95161.06;;;9.23;94.08
69171;BME280;56279;47.902;12.308;2023-05-11T02:21:01;95156.09;;;9.22;93.61
69171;BME280;56279;47.902;12.308;2023-05-11T02:23:03;95162.13;;;9.22;93.67
69171;BME280;56279;47.902;12.308;2023-05-11T02:25:08;95163.44;;;9.20;94.09
69171;BME280;56279;47.902;12.308;2023-05-11T02:27:10;95166.09;;;9.20;93.78
69171;BME280;56279;47.902;12.308;2023-05-11T02:29:13;95166.09;;;9.20;94.16
69171;BME280;56279;47.902;12.308;2023-05-11T02:31:18;95156.63;;;9.19;93.71
69171;BME280;56279;47.902;12.308;2023-05-11T02:33:34;95159.25;;;9.19;93.74
69171;BME280;56279;47.902;12.308;2023-05-11T02:35:39;95155.56;;;9.20;94.02
69171;BME280;56279;47.902;12.308;2023-05-11T02:37:45;95156.63;;;9.19;93.82
69171;BME280;56279;47.902;12.308;2023-05-11T02:39:56;95162.94;;;9.18;94.16
69171;BME280;56279;47.902;12.308;2023-05-11T02:44:35;95156.88;;;9.17;93.89
69171;BME280;56279;47.902;12.308;2023-05-11T02:46:39;95156.88;;;9.17;94.19
69171;BME280;56279;47.902;12.308;2023-05-11T02:48:43;95154.00;;;9.19;93.97
69171;BME280;56279;47.902;12.308;2023-05-11T02:50:50;95158.97;;;9.20;94.33
69171;BME280;56279;47.902;12.308;2023-05-11T02:52:54;95148.44;;;9.20;94.13
69171;BME280;56279;47.902;12.308;2023-05-11T02:55:01;95151.59;;;9.22;94.30
69171;BME280;56279;47.902;12.308;2023-05-11T02:57:03;95148.19;;;9.22;93.71
69171;BME280;56279;47.902;12.308;2023-05-11T02:59:05;95146.59;;;9.21;94.07
69171;BME280;56279;47.902;12.308;2023-05-11T03:01:06;95143.97;;;9.21;93.97
69171;BME280;56279;47.902;12.308;2023-05-11T03:03:07;95147.66;;;9.20;94.53
69171;BME280;56279;47.902;12.308;2023-05-11T03:05:09;95139.00;;;9.19;93.96
69171;BME280;56279;47.902;12.308;2023-05-11T03:07:10;95146.31;;;9.22;93.94
69171;BME280;56279;47.902;12.308;2023-05-11T03:09:12;95136.31;;;9.24;94.15
69171;BME280;56279;47.902;12.308;2023-05-11T03:11:18;95148.44;;;9.25;94.42
69171;BME280;56279;47.902;12.308;2023-05-11T03:13:23;95140.53;;;9.25;94.42
69171;BME280;56279;47.902;12.308;2023-05-11T03:15:27;95143.66;;;9.27;94.09
69171;BME280;56279;47.902;12.308;2023-05-11T03:17:30;95143.66;;;9.27;94.16
69171;BME280;56279;47.902;12.308;2023-05-11T03:19:32;95145.25;;;9.28;94.49
69171;BME280;56279;47.902;12.308;2023-05-11T03:21:36;95141.28;;;9.31;94.25
69171;BME280;56279;47.902;12.308;2023-05-11T03:23:39;95143.13;;;9.30;94.32
69171;BME280;56279;47.902;12.308;2023-05-11T03:25:42;95139.19;;;9.28;94.27
69171;BME280;56279;47.902;12.308;2023-05-11T03:27:45;95142.34;;;9.30;93.96
69171;BME280;56279;47.902;12.308;2023-05-11T03:29:48;95145.78;;;9.30;93.97
69171;BME280;56279;47.902;12.308;2023-05-11T03:31:53;95138.91;;;9.29;94.25
69171;BME280;56279;47.902;12.308;2023-05-11T03:33:56;95138.91;;;9.29;93.97
69171;BME280;56279;47.902;12.308;2023-05-11T03:36:01;95139.19;;;9.28;94.00
69171;BME280;56279;47.902;12.308;2023-05-11T03:38:04;95137.59;;;9.27;93.79
69171;BME280;56279;47.902;12.308;2023-05-11T03:40:07;95138.69;;;9.26;93.91
69171;BME280;56279;47.902;12.308;2023-05-11T03:42:20;95135.78;;;9.22;93.30
69171;BME280;56279;47.902;12.308;2023-05-11T03:44:22;95130.81;;;9.21;94.13
69171;BME280;56279;47.902;12.308;2023-05-11T03:46:25;95134.50;;;9.20;93.92
69171;BME280;56279;47.902;12.308;2023-05-11T03:48:28;95136.88;;;9.21;94.12
69171;BME280;56279;47.902;12.308;2023-05-11T03:50:30;95129.78;;;9.22;93.94
69171;BME280;56279;47.902;12.308;2023-05-11T03:52:34;95127.13;;;9.22;93.82
69171;BME280;56279;47.902;12.308;2023-05-11T03:54:36;95134.47;;;9.25;93.88
69171;BME280;56279;47.902;12.308;2023-05-11T03:56:38;95131.03;;;9.24;93.80
69171;BME280;56279;47.902;12.308;2023-05-11T03:58:39;95127.66;;;9.24;94.47
69171;BME280;56279;47.902;12.308;2023-05-11T04:00:41;95132.13;;;9.23;94.77
69171;BME280;56279;47.902;12.308;2023-05-11T04:02:43;95128.69;;;9.23;94.31
69171;BME280;56279;47.902;12.308;2023-05-11T04:04:46;95130.28;;;9.24;94.63
69171;BME280;56279;47.902;12.308;2023-05-11T04:06:47;95130.28;;;9.24;94.55
69171;BME280;56279;47.902;12.308;2023-05-11T04:08:55;95129.50;;;9.23;94.43
69171;BME280;56279;47.902;12.308;2023-05-11T04:10:56;95129.50;;;9.23;94.70
69171;BME280;56279;47.902;12.308;2023-05-11T04:12:57;95131.03;;;9.24;94.48
69171;BME280;56279;47.902;12.308;2023-05-11T04:14:59;95129.19;;;9.25;94.73
69171;BME280;56279;47.902;12.308;2023-05-11T04:17:00;95132.91;;;9.24;94.70
69171;BME280;56279;47.902;12.308;2023-05-11T04:19:02;95130.28;;;9.24;94.50
69171;BME280;56279;47.902;12.308;2023-05-11T04:21:03;95133.69;;;9.24;94.69
69171;BME280;56279;47.902;12.308;2023-05-11T04:23:06;95137.91;;;9.25;94.32
69171;BME280;56279;47.902;12.308;2023-05-11T04:25:08;95135.25;;;9.25;94.35
69171;BME280;56279;47.902;12.308;2023-05-11T04:27:09;95135.53;;;9.24;94.42
69171;BME280;56279;47.902;12.308;2023-05-11T04:29:11;95137.09;;;9.25;94.70
69171;BME280;56279;47.902;12.308;2023-05-11T04:31:12;95146.84;;;9.24;94.44
69171;BME280;56279;47.902;12.308;2023-05-11T04:33:14;95141.31;;;9.26;94.58
69171;BME280;56279;47.902;12.308;2023-05-11T04:35:15;95137.91;;;9.25;94.66
69171;BME280;56279;47.902;12.308;2023-05-11T04:37:16;95138.44;;;9.22;94.45
69171;BME280;56279;47.902;12.308;2023-05-11T04:39:18;95137.66;;;9.22;94.67
69171;BME280;56279;47.902;12.308;2023-05-11T04:41:19;95134.25;;;9.21;94.22
69171;BME280;56279;47.902;12.308;2023-05-11T04:43:20;95134.75;;;9.23;94.41
69171;BME280;56279;47.902;12.308;2023-05-11T04:45:23;95131.31;;;9.23;94.67
69171;BME280;56279;47.902;12.308;2023-05-11T04:47:24;95129.50;;;9.23;94.63
69171;BME280;56279;47.902;12.308;2023-05-11T04:49:25;95129.50;;;9.23;94.73
69171;BME280;56279;47.902;12.308;2023-05-11T04:51:27;95136.59;;;9.23;94.77
69171;BME280;56279;47.902;12.308;2023-05-11T04:53:28;95143.69;;;9.22;94.72
69171;BME280;56279;47.902;12.308;2023-05-11T04:55:29;95141.56;;;9.24;94.69
69171;BME280;56279;47.902;12.308;2023-05-11T04:57:31;95133.69;;;9.24;94.77
69171;BME280;56279;47.902;12.308;2023-05-11T04:59:33;95140.53;;;9.25;94.96
69171;BME280;56279;47.902;12.308;2023-05-11T05:01:34;95142.13;;;9.26;94.66
69171;BME280;56279;47.902;12.308;2023-05-11T05:03:36;95141.03;;;9.27;94.86
69171;BME280;56279;47.902;12.308;2023-05-11T05:05:38;95140.25;;;9.27;94.43
69171;BME280;56279;47.902;12.308;2023-05-11T05:07:39;95144.75;;;9.26;94.89
69171;BME280;56279;47.902;12.308;2023-05-11T05:09:40;95140.25;;;9.27;94.90
69171;BME280;56279;47.902;12.308;2023-05-11T05:11:42;95142.63;;;9.28;94.90
69171;BME280;56279;47.902;12.308;2023-05-11T05:13:43;95151.56;;;9.27;94.61
69171;BME280;56279;47.902;12.308;2023-05-11T05:15:45;95151.84;;;9.26;94.44
69171;BME280;56279;47.902;12.308;2023-05-11T05:17:47;95145.50;;;9.27;95.11
69171;BME280;56279;47.902;12.308;2023-05-11T05:19:49;95143.66;;;9.27;95.12
69171;BME280;56279;47.902;12.308;2023-05-11T05:21:51;95147.09;;;9.28;94.93
69171;BME280;56279;47.902;12.308;2023-05-11T05:23:52;95147.88;;;9.28;94.93
69171;BME280;56279;47.902;12.308;2023-05-11T05:25:53;95146.81;;;9.29;94.74
69171;BME280;56279;47.902;12.308;2023-05-11T05:27:55;95148.41;;;9.30;95.11
69171;BME280;56279;47.902;12.308;2023-05-11T05:29:56;95153.66;;;9.30;94.73
69171;BME280;56279;47.902;12.308;2023-05-11T05:32:09;95156.03;;;9.32;94.82
69171;BME280;56279;47.902;12.308;2023-05-11T05:34:10;95149.44;;;9.34;94.63
69171;BME280;56279;47.902;12.308;2023-05-11T05:36:12;95156.00;;;9.37;94.66
69171;BME280;56279;47.902;12.308;2023-05-11T05:38:13;95159.94;;;9.39;94.67
69171;BME280;56279;47.902;12.308;2023-05-11T05:40:16;95156.47;;;9.44;94.43
69171;BME280;56279;47.902;12.308;2023-05-11T05:42:22;95165.69;;;9.46;94.75
69171;BME280;56279;47.902;12.308;2023-05-11T05:44:24;95160.63;;;9.50;94.21
69171;BME280;56279;47.902;12.308;2023-05-11T05:46:25;95163.03;;;9.51;94.13
69171;BME280;56279;47.902;12.308;2023-05-11T05:48:27;95165.38;;;9.53;94.38
69171;BME280;56279;47.902;12.308;2023-05-11T05:50:28;95166.16;;;9.53;94.41
69171;BME280;56279;47.902;12.308;2023-05-11T05:52:30;95166.16;;;9.53;94.17
69171;BME280;56279;47.902;12.308;2023-05-11T05:54:33;95168.81;;;9.53;93.82
69171;BME280;56279;47.902;12.308;2023-05-11T05:56:35;95169.09;;;9.52;94.01
69171;BME280;56279;47.902;12.308;2023-05-11T05:58:37;95170.94;;;9.51;93.62
69171;BME280;56279;47.902;12.308;2023-05-11T06:00:38;95165.16;;;9.49;93.78
69171;BME280;56279;47.902;12.308;2023-05-11T06:02:43;95162.50;;;9.49;93.79
69171;BME280;56279;47.902;12.308;2023-05-11T06:04:55;95165.91;;;9.50;93.79
69171;BME280;56279;47.902;12.308;2023-05-11T06:06:56;95167.50;;;9.51;93.87
69171;BME280;56279;47.902;12.308;2023-05-11T06:08:58;95165.66;;;9.51;93.87
69171;BME280;56279;47.902;12.308;2023-05-11T06:10:59;95168.81;;;9.53;93.58
69171;BME280;56279;47.902;12.308;2023-05-11T06:13:01;95165.63;;;9.56;93.92
69171;BME280;56279;47.902;12.308;2023-05-11T06:15:03;95171.41;;;9.58;93.51
69171;BME280;56279;47.902;12.308;2023-05-11T06:17:07;95175.84;;;9.63;93.34
69171;BME280;56279;47.902;12.308;2023-05-11T06:19:08;95176.34;;;9.65;93.36
69171;BME280;56279;47.902;12.308;2023-05-11T06:21:10;95171.59;;;9.67;93.24
69171;BME280;56279;47.902;12.308;2023-05-11T06:23:11;95175.00;;;9.72;93.03
69171;BME280;56279;47.902;12.308;2023-05-11T06:25:15;95179.16;;;9.79;93.10
69171;BME280;56279;47.902;12.308;2023-05-11T06:27:18;95166.16;;;9.87;92.77
69171;BME280;56279;47.902;12.308;2023-05-11T06:29:19;95169.81;;;9.96;92.36
69171;BME280;56279;47.902;12.308;2023-05-11T06:31:22;95170.28;;;10.03;92.23
69171;BME280;56279;47.902;12.308;2023-05-11T06:33:25;95172.84;;;10.08;91.88
69171;BME280;56279;47.902;12.308;2023-05-11T06:35:28;95165.72;;;10.14;91.99
69171;BME280;56279;47.902;12.308;2023-05-11T06:37:31;95165.97;;;10.17;91.51
69171;BME280;56279;47.902;12.308;2023-05-11T06:39:35;95168.03;;;10.20;91.25
69171;BME280;56279;47.902;12.308;2023-05-11T06:41:38;95160.09;;;10.25;91.59
69171;BME280;56279;47.902;12.308;2023-05-11T06:43:40;95166.66;;;10.28;90.96
69171;BME280;56279;47.902;12.308;2023-05-11T06:45:53;95164.53;;;10.30;90.74
69171;BME280;56279;47.902;12.308;2023-05-11T06:47:55;95170.81;;;10.34;90.95
69171;BME280;56279;47.902;12.308;2023-05-11T06:49:57;95170.81;;;10.34;90.66
69171;BME280;56279;47.902;12.308;2023-05-11T06:51:58;95165.03;;;10.32;90.55
69171;BME280;56279;47.902;12.308;2023-05-11T06:53:59;95165.81;;;10.32;90.77
69171;BME280;56279;47.902;12.308;2023-05-11T06:56:01;95161.28;;;10.38;90.96
69171;BME280;56279;47.902;12.308;2023-05-11T06:58:03;95167.31;;;10.38;90.78
69171;BME280;56279;47.902;12.308;2023-05-11T07:00:05;95160.78;;;10.36;90.73
69171;BME280;56279;47.902;12.308;2023-05-11T07:02:07;95158.91;;;10.36;90.69
69171;BME280;56279;47.902;12.308;2023-05-11T07:04:08;95162.34;;;10.37;90.48
69171;BME280;56279;47.902;12.308;2023-05-11T07:06:09;95169.72;;;10.40;90.50
69171;BME280;56279;47.902;12.308;2023-05-11T07:08:10;95164.97;;;10.37;90.18
69171;BME280;56279;47.902;12.308;2023-05-11T07:10:12;95153.94;;;10.35;90.13
69171;BME280;56279;47.902;12.308;2023-05-11T07:12:13;95162.63;;;10.35;90.24
69171;BME280;56279;47.902;12.308;2023-05-11T07:14:14;95161.34;;;10.33;90.28
69171;BME280;56279;47.902;12.308;2023-05-11T07:16:16;95163.19;;;10.32;90.35
69171;BME280;56279;47.902;12.308;2023-05-11T07:18:18;95167.66;;;10.32;90.20
69171;BME280;56279;47.902;12.308;2023-05-11T07:20:20;95164.53;;;10.30;89.92
69171;BME280;56279;47.902;12.308;2023-05-11T07:22:21;95162.50;;;10.22;89.79
69171;BME280;56279;47.902;12.308;2023-05-11T07:24:22;95167.53;;;10.18;90.09
69171;BME280;56279;47.902;12.308;2023-05-11T07:26:24;95170.22;;;10.13;90.11
69171;BME280;56279;47.902;12.308;2023-05-11T07:28:25;95164.94;;;10.08;89.77
69171;BME280;56279;47.902;12.308;2023-05-11T07:30:26;95168.94;;;10.06;90.07
69171;BME280;56279;47.902;12.308;2023-05-11T07:32:27;95173.69;;;10.04;90.07
69171;BME280;56279;47.902;12.308;2023-05-11T07:34:29;95167.09;;;10.01;90.45
69171;BME280;56279;47.902;12.308;2023-05-11T07:36:30;95164.22;;;10.03;89.83
69171;BME280;56279;47.902;12.308;2023-05-11T07:38:32;95163.13;;;10.04;90.06
69171;BME280;56279;47.902;12.308;2023-05-11T07:40:34;95172.63;;;10.05;89.76
69171;BME280;56279;47.902;12.308;2023-05-11T07:42:36;95171.84;;;10.04;90.02
69171;BME280;56279;47.902;12.308;2023-05-11T07:44:37;95168.94;;;10.06;89.59
69171;BME280;56279;47.902;12.308;2023-05-11T07:46:39;95167.31;;;10.10;90.00
69171;BME280;56279;47.902;12.308;2023-05-11T07:48:40;95178.66;;;10.10;89.56
69171;BME280;56279;47.902;12.308;2023-05-11T07:50:41;95173.94;;;10.12;89.88
69171;BME280;56279;47.902;12.308;2023-05-11T07:52:43;95177.28;;;10.18;90.05
69171;BME280;56279;47.902;12.308;2023-05-11T07:54:44;95173.81;;;10.22;89.87
69171;BME280;56279;47.902;12.308;2023-05-11T07:56:45;95175.13;;;10.25;89.82
69171;BME280;56279;47.902;12.308;2023-05-11T07:58:46;95174.28;;;10.29;89.55
69171;BME280;56279;47.902;12.308;2023-05-11T08:00:49;95175.56;;;10.32;89.92
69171;BME280;56279;47.902;12.308;2023-05-11T08:02:50;95173.19;;;10.35;89.73
69171;BME280;56279;47.902;12.308;2023-05-11T08:04:52;95174.75;;;10.36;89.48
69171;BME280;56279;47.902;12.308;2023-05-11T08:06:53;95174.75;;;10.36;89.06
69171;BME280;56279;47.902;12.308;2023-05-11T08:08:55;95175.31;;;10.33;88.86
69171;BME280;56279;47.902;12.308;2023-05-11T08:10:56;95174.56;;;10.28;88.75
69171;BME280;56279;47.902;12.308;2023-05-11T08:12:57;95176.41;;;10.27;89.11
69171;BME280;56279;47.902;12.308;2023-05-11T08:14:59;95176.66;;;10.31;89.20
69171;BME280;56279;47.902;12.308;2023-05-11T08:17:00;95176.16;;;10.29;89.02
69171;BME280;56279;47.902;12.308;2023-05-11T08:19:02;95168.25;;;10.29;88.73
69171;BME280;56279;47.902;12.308;2023-05-11T08:21:03;95166.56;;;10.38;88.99
69171;BME280;56279;47.902;12.308;2023-05-11T08:23:04;95169.31;;;10.52;88.94
69171;BME280;56279;47.902;12.308;2023-05-11T08:25:06;95169.69;;;10.69;88.68
69171;BME280;56279;47.902;12.308;2023-05-11T08:27:08;95167.66;;;10.84;88.31
69171;BME280;56279;47.902;12.308;2023-05-11T08:29:10;95166.97;;;10.97;87.68
69171;BME280;56279;47.902;12.308;2023-05-11T08:31:12;95163.97;;;11.04;87.21
69171;BME280;56279;47.902;12.308;2023-05-11T08:33:14;95176.13;;;11.05;87.09
69171;BME280;56279;47.902;12.308;2023-05-11T08:35:15;95167.47;;;10.99;86.39
69171;BME280;56279;47.902;12.308;2023-05-11T08:37:16;95172.28;;;10.92;86.46
69171;BME280;56279;47.902;12.308;2023-05-11T08:39:17;95171.78;;;10.90;86.21
69171;BME280;56279;47.902;12.308;2023-05-11T08:41:19;95173.88;;;10.93;86.49
69171;BME280;56279;47.902;12.308;2023-05-11T08:43:22;95178.59;;;10.96;85.99
69171;BME280;56279;47.902;12.308;2023-05-11T08:45:25;95164.91;;;10.94;85.85
69171;BME280;56279;47.902;12.308;2023-05-11T08:47:27;95172.81;;;10.94;85.85
69171;BME280;56279;47.902;12.308;2023-05-11T08:49:29;95170.44;;;10.93;85.50
69171;BME280;56279;47.902;12.308;2023-05-11T08:51:30;95172.09;;;10.89;85.81
69171;BME280;56279;47.902;12.308;2023-05-11T08:53:32;95171.28;;;10.88;85.55
69171;BME280;56279;47.902;12.308;2023-05-11T08:55:34;95173.94;;;10.88;85.17
69171;BME280;56279;47.902;12.308;2023-05-11T08:57:37;95168.59;;;10.93;85.00
69171;BME280;56279;47.902;12.308;2023-05-11T08:59:40;95166.75;;;10.94;84.58
69171;BME280;56279;47.902;12.308;2023-05-11T09:01:42;95161.47;;;10.94;84.50
69171;BME280;56279;47.902;12.308;2023-05-11T09:03:44;95161.72;;;10.92;84.89
69171;BME280;56279;47.902;12.308;2023-05-11T09:05:47;95168.81;;;10.97;85.42
69171;BME280;56279;47.902;12.308;2023-05-11T09:07:52;95171.38;;;11.02;84.62
69171;BME280;56279;47.902;12.308;2023-05-11T09:09:54;95161.63;;;11.02;84.45
69171;BME280;56279;47.902;12.308;2023-05-11T09:11:56;95167.75;;;10.98;84.47
69171;BME280;56279;47.902;12.308;2023-05-11T09:13:57;95164.38;;;10.92;84.16
69171;BME280;56279;47.902;12.308;2023-05-11T09:15:59;95155.44;;;10.88;83.98
69171;BME280;56279;47.902;12.308;2023-05-11T09:18:00;95164.97;;;10.89;84.27
69171;BME280;56279;47.902;12.308;2023-05-11T09:20:04;95158.59;;;10.90;84.21
69171;BME280;56279;47.902;12.308;2023-05-11T09:22:06;95154.25;;;10.99;83.98
69171;BME280;56279;47.902;12.308;2023-05-11T09:24:10;95158.38;;;11.10;84.35
69171;BME280;56279;47.902;12.308;2023-05-11T09:26:14;95161.34;;;11.23;83.88
69171;BME280;56279;47.902;12.308;2023-05-11T09:28:20;95151.50;;;11.28;84.02
69171;BME280;56279;47.902;12.308;2023-05-11T09:30:25;95158.38;;;11.29;83.08
69171;BME280;56279;47.902;12.308;2023-05-11T09:32:45;95160.84;;;11.21;83.34
69171;BME280;56279;47.902;12.308;2023-05-11T09:35:31;95161.72;;;11.16;83.62
69171;BME280;56279;47.902;12.308;2023-05-11T09:37:33;95164.94;;;11.13;83.44
69171;BME280;56279;47.902;12.308;2023-05-11T09:39:35;95158.69;;;11.04;83.41
69171;BME280;56279;47.902;12.308;2023-05-11T09:41:36;95162.75;;;10.96;83.60
69171;BME280;56279;47.902;12.308;2023-05-11T09:43:38;95158.03;;;10.93;83.75
69171;BME280;56279;47.902;12.308;2023-05-11T09:45:41;95160.69;;;10.93;84.17
69171;BME280;56279;47.902;12.308;2023-05-11T09:47:43;95157.97;;;10.98;84.13
69171;BME280;56279;47.902;12.308;2023-05-11T09:49:45;95161.69;;;10.97;84.02
69171;BME280;56279;47.902;12.308;2023-05-11T09:51:59;95148.53;;;10.92;84.00
69171;BME280;56279;47.902;12.308;2023-05-11T09:54:18;95164.22;;;10.84;84.25
69171;BME280;56279;47.902;12.308;2023-05-11T09:56:20;95154.50;;;10.79;84.48
69171;BME280;56279;47.902;12.308;2023-05-11T09:58:22;95159.00;;;10.79;84.80
69171;BME280;56279;47.902;12.308;2023-05-11T10:00:24;95154.56;;;10.74;84.79
69171;BME280;56279;47.902;12.308;2023-05-11T10:02:29;95164.91;;;10.71;84.88
69171;BME280;56279;47.902;12.308;2023-05-11T10:04:31;95163.56;;;10.73;85.30
69171;BME280;56279;47.902;12.308;2023-05-11T10:06:43;95166.13;;;10.78;84.96
69171;BME280;56279;47.902;12.308;2023-05-11T10:08:44;95151.81;;;10.84;84.94
69171;BME280;56279;47.902;12.308;2023-05-11T10:10:46;95159.38;;;10.91;84.72
69171;BME280;56279;47.902;12.308;2023-05-11T10:12:47;95152.91;;;11.02;85.07
69171;BME280;56279;47.902;12.308;2023-05-11T10:14:51;95151.63;;;11.18;85.13
69171;BME280;56279;47.902;12.308;2023-05-11T10:16:56;95149.00;;;11.37;84.62
69171;BME280;56279;47.902;12.308;2023-05-11T10:18:58;95149.38;;;11.49;84.00
69171;BME280;56279;47.902;12.308;2023-05-11T10:20:59;95148.69;;;11.62;83.81
69171;BME280;56279;47.902;12.308;2023-05-11T10:23:02;95149.97;;;11.64;83.59
69171;BME280;56279;47.902;12.308;2023-05-11T10:25:04;95143.66;;;11.60;83.75
69171;BME280;56279;47.902;12.308;2023-05-11T10:27:06;95148.03;;;11.70;83.75
69171;BME280;56279;47.902;12.308;2023-05-11T10:29:08;95138.97;;;11.76;83.49
69171;BME280;56279;47.902;12.308;2023-05-11T10:31:12;95137.88;;;11.77;83.69
69171;BME280;56279;47.902;12.308;2023-05-11T10:33:14;95137.38;;;11.75;83.41
69171;BME280;56279;47.902;12.308;2023-05-11T10:35:17;95138.19;;;11.75;83.54
69171;BME280;56279;47.902;12.308;2023-05-11T10:37:21;95142.75;;;11.70;83.55
69171;BME280;56279;47.902;12.308;2023-05-11T10:39:22;95130.06;;;11.67;83.98
69171;BME280;56279;47.902;12.308;2023-05-11T10:41:40;95136.31;;;11.57;83.79
69171;BME280;56279;47.902;12.308;2023-05-11T10:43:51;95132.16;;;11.51;84.54
69171;BME280;56279;47.902;12.308;2023-05-11T10:54:47;95127.19;;;11.31;84.90
69171;BME280;56279;47.902;12.308;2023-05-11T11:01:36;95128.47;;;11.15;84.75
69171;BME280;56279;47.902;12.308;2023-05-11T11:03:39;95129.81;;;11.13;84.80
69171;BME280;56279;47.902;12.308;2023-05-11T11:05:40;95129.81;;;11.13;84.85
69171;BME280;56279;47.902;12.308;2023-05-11T11:07:57;95130.88;;;11.11;84.64
69171;BME280;56279;47.902;12.308;2023-05-11T11:10:00;95128.53;;;11.10;85.37
69171;BME280;56279;47.902;12.308;2023-05-11T11:12:09;95134.78;;;11.14;85.60
69171;BME280;56279;47.902;12.308;2023-05-11T11:14:12;95138.22;;;11.15;85.38
69171;BME280;56279;47.902;12.308;2023-05-11T11:16:14;95133.16;;;11.18;85.48